sensor_id;sensor_type;location;lat;lon;timestamp;P1;durP1;ratioP1;P2;durP2;ratioP2
8480;SDS011;4277;51.354;6.740;2023-03-14T00:00:53;7.13;;;1.83;;
8480;SDS011;4277;51.354;6.740;2023-03-14T00:03:19;4.50;;;1.50;;
8480;SDS011;4277;51.354;6.740;2023-03-14T00:05:45;4.40;;;1.60;;
8480;SDS011;4277;51.354;6.740;2023-03-14T00:08:11;5.83;;;1.83;;
8480;SDS011;4277;51.354;6.740;2023-03-14T00:10:37;6.43;;;1.30;;
8480;SDS011;4277;51.354;6.740;2023-03-14T00:13:03;6.10;;;1.50;;
8480;SDS011;4277;51.354;6.740;2023-03-14T00:15:29;6.23;;;1.77;;
8480;SDS011;4277;51.354;6.740;2023-03-14T00:17:55;5.43;;;1.53;;
8480;SDS011;4277;51.354;6.740;2023-03-14T00:20:21;5.13;;;1.57;;
8480;SDS011;4277;51.354;6.740;2023-03-14T00:22:47;6.57;;;1.53;;
8480;SDS011;4277;51.354;6.740;2023-03-14T00:25:13;4.27;;;1.50;;
8480;SDS011;4277;51.354;6.740;2023-03-14T00:27:39;8.30;;;1.90;;
8480;SDS011;4277;51.354;6.740;2023-03-14T00:30:05;7.00;;;1.80;;
8480;SDS011;4277;51.354;6.740;2023-03-14T00:32:32;4.67;;;1.37;;
8480;SDS011;4277;51.354;6.740;2023-03-14T00:34:58;4.37;;;1.20;;
8480;SDS011;4277;51.354;6.740;2023-03-14T00:37:25;4.00;;;1.10;;
8480;SDS011;4277;51.354;6.740;2023-03-14T00:39:51;4.03;;;1.03;;
8480;SDS011;4277;51.354;6.740;2023-03-14T00:42:17;4.73;;;1.30;;
8480;SDS011;4277;51.354;6.740;2023-03-14T00:44:43;4.63;;;0.80;;
8480;SDS011;4277;51.354;6.740;2023-03-14T00:47:09;3.10;;;0.93;;
8480;SDS011;4277;51.354;6.740;2023-03-14T00:49:35;1.30;;;0.53;;
8480;SDS011;4277;51.354;6.740;2023-03-14T00:52:01;3.50;;;0.80;;
8480;SDS011;4277;51.354;6.740;2023-03-14T00:54:27;2.73;;;0.60;;
8480;SDS011;4277;51.354;6.740;2023-03-14T00:56:53;3.27;;;0.60;;
8480;SDS011;4277;51.354;6.740;2023-03-14T00:59:19;3.30;;;0.80;;
8480;SDS011;4277;51.354;6.740;2023-03-14T01:01:45;4.63;;;0.93;;
8480;SDS011;4277;51.354;6.740;2023-03-14T01:04:11;2.90;;;0.83;;
8480;SDS011;4277;51.354;6.740;2023-03-14T01:06:37;3.40;;;1.10;;
8480;SDS011;4277;51.354;6.740;2023-03-14T01:09:03;3.53;;;1.00;;
8480;SDS011;4277;51.354;6.740;2023-03-14T01:11:33;3.67;;;1.20;;
8480;SDS011;4277;51.354;6.740;2023-03-14T01:14:00;4.50;;;1.10;;
8480;SDS011;4277;51.354;6.740;2023-03-14T01:16:26;3.93;;;1.10;;
8480;SDS011;4277;51.354;6.740;2023-03-14T01:18:53;4.60;;;1.00;;
8480;SDS011;4277;51.354;6.740;2023-03-14T01:21:20;3.87;;;1.10;;
8480;SDS011;4277;51.354;6.740;2023-03-14T01:23:46;2.83;;;1.00;;
8480;SDS011;4277;51.354;6.740;2023-03-14T01:26:13;4.50;;;1.03;;
8480;SDS011;4277;51.354;6.740;2023-03-14T01:28:40;4.90;;;1.40;;
8480;SDS011;4277;51.354;6.740;2023-03-14T01:31:07;3.77;;;1.33;;
8480;SDS011;4277;51.354;6.740;2023-03-14T01:33:33;3.23;;;0.90;;
8480;SDS011;4277;51.354;6.740;2023-03-14T01:35:59;5.60;;;1.30;;
8480;SDS011;4277;51.354;6.740;2023-03-14T01:38:29;6.07;;;1.20;;
8480;SDS011;4277;51.354;6.740;2023-03-14T01:40:55;5.53;;;1.30;;
8480;SDS011;4277;51.354;6.740;2023-03-14T01:43:21;3.87;;;1.10;;
8480;SDS011;4277;51.354;6.740;2023-03-14T01:49:16;3.67;;;1.13;;
8480;SDS011;4277;51.354;6.740;2023-03-14T01:51:18;4.27;;;1.17;;
8480;SDS011;4277;51.354;6.740;2023-03-14T01:53:44;3.37;;;1.20;;
8480;SDS011;4277;51.354;6.740;2023-03-14T01:56:11;4.43;;;1.13;;
8480;SDS011;4277;51.354;6.740;2023-03-14T01:58:39;5.73;;;1.27;;
8480;SDS011;4277;51.354;6.740;2023-03-14T02:01:06;5.57;;;0.97;;
8480;SDS011;4277;51.354;6.740;2023-03-14T02:03:34;4.40;;;1.10;;
8480;SDS011;4277;51.354;6.740;2023-03-14T02:06:04;3.23;;;1.10;;
8480;SDS011;4277;51.354;6.740;2023-03-14T02:08:31;5.27;;;1.27;;
8480;SDS011;4277;51.354;6.740;2023-03-14T02:10:57;4.13;;;1.17;;
8480;SDS011;4277;51.354;6.740;2023-03-14T02:13:23;2.67;;;1.13;;
8480;SDS011;4277;51.354;6.740;2023-03-14T02:15:49;7.77;;;1.80;;
8480;SDS011;4277;51.354;6.740;2023-03-14T02:18:15;4.17;;;1.10;;
8480;SDS011;4277;51.354;6.740;2023-03-14T02:20:45;6.80;;;1.63;;
8480;SDS011;4277;51.354;6.740;2023-03-14T02:23:13;7.17;;;1.70;;
8480;SDS011;4277;51.354;6.740;2023-03-14T02:28:19;6.50;;;1.60;;
8480;SDS011;4277;51.354;6.740;2023-03-14T02:30:45;4.60;;;1.27;;
8480;SDS011;4277;51.354;6.740;2023-03-14T02:33:19;7.27;;;1.87;;
8480;SDS011;4277;51.354;6.740;2023-03-14T02:36:07;5.97;;;1.47;;
8480;SDS011;4277;51.354;6.740;2023-03-14T02:41:04;5.60;;;1.53;;
8480;SDS011;4277;51.354;6.740;2023-03-14T02:43:30;6.37;;;1.47;;
8480;SDS011;4277;51.354;6.740;2023-03-14T02:45:56;6.03;;;1.30;;
8480;SDS011;4277;51.354;6.740;2023-03-14T02:48:35;7.00;;;1.57;;
8480;SDS011;4277;51.354;6.740;2023-03-14T02:51:04;4.87;;;1.20;;
8480;SDS011;4277;51.354;6.740;2023-03-14T02:53:31;6.40;;;1.87;;
8480;SDS011;4277;51.354;6.740;2023-03-14T02:55:57;6.23;;;1.17;;
8480;SDS011;4277;51.354;6.740;2023-03-14T02:58:23;8.03;;;1.20;;
8480;SDS011;4277;51.354;6.740;2023-03-14T03:00:50;4.57;;;1.27;;
8480;SDS011;4277;51.354;6.740;2023-03-14T03:03:16;6.10;;;1.50;;
8480;SDS011;4277;51.354;6.740;2023-03-14T03:05:41;5.27;;;1.50;;
8480;SDS011;4277;51.354;6.740;2023-03-14T03:08:08;4.93;;;1.20;;
8480;SDS011;4277;51.354;6.740;2023-03-14T03:10:35;3.20;;;0.80;;
8480;SDS011;4277;51.354;6.740;2023-03-14T03:13:01;5.93;;;1.40;;
8480;SDS011;4277;51.354;6.740;2023-03-14T03:15:27;4.77;;;1.03;;
8480;SDS011;4277;51.354;6.740;2023-03-14T03:17:53;6.37;;;1.43;;
8480;SDS011;4277;51.354;6.740;2023-03-14T03:20:19;5.80;;;1.60;;
8480;SDS011;4277;51.354;6.740;2023-03-14T03:22:45;5.80;;;1.50;;
8480;SDS011;4277;51.354;6.740;2023-03-14T03:25:11;4.57;;;1.30;;
8480;SDS011;4277;51.354;6.740;2023-03-14T03:27:37;5.90;;;1.17;;
8480;SDS011;4277;51.354;6.740;2023-03-14T03:30:04;5.43;;;1.30;;
8480;SDS011;4277;51.354;6.740;2023-03-14T03:32:31;5.33;;;1.37;;
8480;SDS011;4277;51.354;6.740;2023-03-14T03:34:57;7.17;;;1.30;;
8480;SDS011;4277;51.354;6.740;2023-03-14T03:37:23;5.33;;;1.40;;
8480;SDS011;4277;51.354;6.740;2023-03-14T03:39:52;3.90;;;1.30;;
8480;SDS011;4277;51.354;6.740;2023-03-14T03:42:18;7.40;;;1.57;;
8480;SDS011;4277;51.354;6.740;2023-03-14T03:44:44;5.37;;;1.40;;
8480;SDS011;4277;51.354;6.740;2023-03-14T03:47:10;5.53;;;1.47;;
8480;SDS011;4277;51.354;6.740;2023-03-14T03:49:36;4.87;;;1.80;;
8480;SDS011;4277;51.354;6.740;2023-03-14T03:52:02;8.67;;;1.60;;
8480;SDS011;4277;51.354;6.740;2023-03-14T03:54:28;6.37;;;1.47;;
8480;SDS011;4277;51.354;6.740;2023-03-14T03:56:54;5.10;;;1.60;;
8480;SDS011;4277;51.354;6.740;2023-03-14T03:59:20;4.83;;;1.70;;
8480;SDS011;4277;51.354;6.740;2023-03-14T04:01:47;7.80;;;1.57;;
8480;SDS011;4277;51.354;6.740;2023-03-14T04:04:13;7.67;;;1.87;;
8480;SDS011;4277;51.354;6.740;2023-03-14T04:06:39;5.17;;;1.23;;
8480;SDS011;4277;51.354;6.740;2023-03-14T04:09:07;6.60;;;1.23;;
8480;SDS011;4277;51.354;6.740;2023-03-14T04:11:33;3.33;;;1.00;;
8480;SDS011;4277;51.354;6.740;2023-03-14T04:13:59;4.50;;;1.00;;
8480;SDS011;4277;51.354;6.740;2023-03-14T04:16:25;6.20;;;1.20;;
8480;SDS011;4277;51.354;6.740;2023-03-14T04:18:51;5.13;;;1.10;;
8480;SDS011;4277;51.354;6.740;2023-03-14T04:21:17;3.70;;;0.70;;
8480;SDS011;4277;51.354;6.740;2023-03-14T04:23:43;2.80;;;0.50;;
8480;SDS011;4277;51.354;6.740;2023-03-14T04:26:09;5.07;;;0.70;;
8480;SDS011;4277;51.354;6.740;2023-03-14T04:28:35;1.80;;;0.80;;
8480;SDS011;4277;51.354;6.740;2023-03-14T04:31:12;1.90;;;0.60;;
8480;SDS011;4277;51.354;6.740;2023-03-14T04:33:38;1.40;;;0.60;;
8480;SDS011;4277;51.354;6.740;2023-03-14T04:36:05;3.80;;;0.70;;
8480;SDS011;4277;51.354;6.740;2023-03-14T04:38:31;2.03;;;0.40;;
8480;SDS011;4277;51.354;6.740;2023-03-14T04:40:57;1.77;;;0.50;;
8480;SDS011;4277;51.354;6.740;2023-03-14T04:43:24;1.23;;;0.40;;
8480;SDS011;4277;51.354;6.740;2023-03-14T04:45:51;1.57;;;0.50;;
8480;SDS011;4277;51.354;6.740;2023-03-14T04:48:17;2.03;;;0.60;;
8480;SDS011;4277;51.354;6.740;2023-03-14T04:50:43;1.33;;;0.57;;
8480;SDS011;4277;51.354;6.740;2023-03-14T04:53:11;3.40;;;0.40;;
8480;SDS011;4277;51.354;6.740;2023-03-14T04:55:37;3.50;;;0.63;;
8480;SDS011;4277;51.354;6.740;2023-03-14T04:58:03;2.47;;;0.53;;
8480;SDS011;4277;51.354;6.740;2023-03-14T05:00:29;2.60;;;0.43;;
8480;SDS011;4277;51.354;6.740;2023-03-14T05:02:55;1.77;;;0.40;;
8480;SDS011;4277;51.354;6.740;2023-03-14T05:05:21;1.53;;;0.40;;
8480;SDS011;4277;51.354;6.740;2023-03-14T05:07:47;1.17;;;0.47;;
8480;SDS011;4277;51.354;6.740;2023-03-14T05:10:13;3.77;;;0.43;;
8480;SDS011;4277;51.354;6.740;2023-03-14T05:12:39;1.30;;;0.40;;
8480;SDS011;4277;51.354;6.740;2023-03-14T05:15:05;0.93;;;0.50;;
8480;SDS011;4277;51.354;6.740;2023-03-14T05:17:34;1.97;;;0.60;;
8480;SDS011;4277;51.354;6.740;2023-03-14T05:20:00;2.67;;;0.60;;
8480;SDS011;4277;51.354;6.740;2023-03-14T05:22:29;0.90;;;0.30;;
8480;SDS011;4277;51.354;6.740;2023-03-14T05:24:55;0.87;;;0.40;;
8480;SDS011;4277;51.354;6.740;2023-03-14T05:27:23;2.30;;;0.70;;
8480;SDS011;4277;51.354;6.740;2023-03-14T05:29:49;0.97;;;0.60;;
8480;SDS011;4277;51.354;6.740;2023-03-14T05:32:15;2.70;;;0.83;;
8480;SDS011;4277;51.354;6.740;2023-03-14T05:34:41;3.47;;;1.00;;
8480;SDS011;4277;51.354;6.740;2023-03-14T05:37:07;2.20;;;1.00;;
8480;SDS011;4277;51.354;6.740;2023-03-14T05:39:33;2.70;;;0.70;;
8480;SDS011;4277;51.354;6.740;2023-03-14T05:41:59;1.97;;;0.93;;
8480;SDS011;4277;51.354;6.740;2023-03-14T05:44:25;2.70;;;0.80;;
8480;SDS011;4277;51.354;6.740;2023-03-14T05:46:51;5.70;;;0.77;;
8480;SDS011;4277;51.354;6.740;2023-03-14T05:49:16;2.50;;;0.87;;
8480;SDS011;4277;51.354;6.740;2023-03-14T05:51:42;2.63;;;0.67;;
8480;SDS011;4277;51.354;6.740;2023-03-14T05:54:08;2.10;;;0.73;;
8480;SDS011;4277;51.354;6.740;2023-03-14T05:56:34;1.43;;;0.60;;
8480;SDS011;4277;51.354;6.740;2023-03-14T05:59:00;1.90;;;0.70;;
8480;SDS011;4277;51.354;6.740;2023-03-14T06:01:28;2.27;;;0.73;;
8480;SDS011;4277;51.354;6.740;2023-03-14T06:03:54;2.13;;;0.57;;
8480;SDS011;4277;51.354;6.740;2023-03-14T06:06:20;3.80;;;0.70;;
8480;SDS011;4277;51.354;6.740;2023-03-14T06:08:46;2.93;;;1.07;;
8480;SDS011;4277;51.354;6.740;2023-03-14T06:11:12;1.23;;;0.40;;
8480;SDS011;4277;51.354;6.740;2023-03-14T06:13:38;1.33;;;0.30;;
8480;SDS011;4277;51.354;6.740;2023-03-14T06:16:04;2.30;;;0.30;;
8480;SDS011;4277;51.354;6.740;2023-03-14T06:18:30;1.10;;;0.40;;
8480;SDS011;4277;51.354;6.740;2023-03-14T06:20:56;0.77;;;0.30;;
8480;SDS011;4277;51.354;6.740;2023-03-14T06:23:22;1.60;;;0.37;;
8480;SDS011;4277;51.354;6.740;2023-03-14T06:25:50;1.07;;;0.37;;
8480;SDS011;4277;51.354;6.740;2023-03-14T06:28:16;0.60;;;0.37;;
8480;SDS011;4277;51.354;6.740;2023-03-14T06:30:42;0.63;;;0.40;;
8480;SDS011;4277;51.354;6.740;2023-03-14T06:33:08;0.53;;;0.30;;
8480;SDS011;4277;51.354;6.740;2023-03-14T06:35:34;1.50;;;0.30;;
8480;SDS011;4277;51.354;6.740;2023-03-14T06:38:00;0.37;;;0.17;;
8480;SDS011;4277;51.354;6.740;2023-03-14T06:40:26;0.87;;;0.30;;
8480;SDS011;4277;51.354;6.740;2023-03-14T06:42:52;0.20;;;0.13;;
8480;SDS011;4277;51.354;6.740;2023-03-14T06:45:18;0.20;;;0.10;;
8480;SDS011;4277;51.354;6.740;2023-03-14T06:47:44;1.60;;;0.43;;
8480;SDS011;4277;51.354;6.740;2023-03-14T06:50:10;0.87;;;0.40;;
8480;SDS011;4277;51.354;6.740;2023-03-14T06:52:36;0.43;;;0.13;;
8480;SDS011;4277;51.354;6.740;2023-03-14T06:55:06;0.83;;;0.27;;
8480;SDS011;4277;51.354;6.740;2023-03-14T06:57:32;0.70;;;0.20;;
8480;SDS011;4277;51.354;6.740;2023-03-14T06:59:58;0.20;;;0.10;;
8480;SDS011;4277;51.354;6.740;2023-03-14T07:02:24;1.17;;;0.47;;
8480;SDS011;4277;51.354;6.740;2023-03-14T07:04:50;0.97;;;0.20;;
8480;SDS011;4277;51.354;6.740;2023-03-14T07:07:16;0.17;;;0.17;;
8480;SDS011;4277;51.354;6.740;2023-03-14T07:09:41;0.73;;;0.27;;
8480;SDS011;4277;51.354;6.740;2023-03-14T07:12:07;0.83;;;0.10;;
8480;SDS011;4277;51.354;6.740;2023-03-14T07:14:33;1.17;;;0.30;;
8480;SDS011;4277;51.354;6.740;2023-03-14T07:16:59;0.23;;;0.23;;
8480;SDS011;4277;51.354;6.740;2023-03-14T07:19:25;0.30;;;0.30;;
8480;SDS011;4277;51.354;6.740;2023-03-14T07:21:51;0.47;;;0.30;;
8480;SDS011;4277;51.354;6.740;2023-03-14T07:24:17;2.20;;;0.50;;
8480;SDS011;4277;51.354;6.740;2023-03-14T07:26:43;1.03;;;0.27;;
8480;SDS011;4277;51.354;6.740;2023-03-14T07:29:09;0.50;;;0.30;;
8480;SDS011;4277;51.354;6.740;2023-03-14T07:31:35;0.40;;;0.30;;
8480;SDS011;4277;51.354;6.740;2023-03-14T07:34:01;0.80;;;0.30;;
8480;SDS011;4277;51.354;6.740;2023-03-14T07:36:27;0.83;;;0.30;;
8480;SDS011;4277;51.354;6.740;2023-03-14T07:38:53;1.97;;;0.40;;
8480;SDS011;4277;51.354;6.740;2023-03-14T07:41:19;1.30;;;0.40;;
8480;SDS011;4277;51.354;6.740;2023-03-14T07:43:45;1.20;;;0.30;;
8480;SDS011;4277;51.354;6.740;2023-03-14T07:46:11;0.67;;;0.50;;
8480;SDS011;4277;51.354;6.740;2023-03-14T07:48:37;0.43;;;0.43;;
8480;SDS011;4277;51.354;6.740;2023-03-14T07:51:03;1.97;;;0.60;;
8480;SDS011;4277;51.354;6.740;2023-03-14T07:53:29;1.03;;;0.60;;
8480;SDS011;4277;51.354;6.740;2023-03-14T07:55:55;0.73;;;0.60;;
8480;SDS011;4277;51.354;6.740;2023-03-14T07:58:21;1.17;;;0.70;;
8480;SDS011;4277;51.354;6.740;2023-03-14T08:00:48;0.60;;;0.50;;
8480;SDS011;4277;51.354;6.740;2023-03-14T08:03:14;0.80;;;0.80;;
8480;SDS011;4277;51.354;6.740;2023-03-14T08:05:41;1.90;;;0.70;;
8480;SDS011;4277;51.354;6.740;2023-03-14T08:08:07;1.37;;;0.80;;
8480;SDS011;4277;51.354;6.740;2023-03-14T08:10:33;1.03;;;0.90;;
8480;SDS011;4277;51.354;6.740;2023-03-14T08:12:59;1.00;;;0.90;;
8480;SDS011;4277;51.354;6.740;2023-03-14T08:15:26;3.67;;;1.17;;
8480;SDS011;4277;51.354;6.740;2023-03-14T08:17:53;2.53;;;1.20;;
8480;SDS011;4277;51.354;6.740;2023-03-14T08:20:20;4.00;;;2.10;;
8480;SDS011;4277;51.354;6.740;2023-03-14T08:22:47;3.07;;;2.07;;
8480;SDS011;4277;51.354;6.740;2023-03-14T08:25:13;5.10;;;3.33;;
8480;SDS011;4277;51.354;6.740;2023-03-14T08:27:39;5.17;;;1.80;;
8480;SDS011;4277;51.354;6.740;2023-03-14T08:30:07;1.63;;;1.53;;
8480;SDS011;4277;51.354;6.740;2023-03-14T08:32:36;2.10;;;1.40;;
8480;SDS011;4277;51.354;6.740;2023-03-14T08:35:02;2.83;;;1.67;;
8480;SDS011;4277;51.354;6.740;2023-03-14T08:37:28;2.70;;;1.43;;
8480;SDS011;4277;51.354;6.740;2023-03-14T08:39:54;1.90;;;1.70;;
8480;SDS011;4277;51.354;6.740;2023-03-14T08:42:20;1.67;;;1.57;;
8480;SDS011;4277;51.354;6.740;2023-03-14T08:44:46;2.70;;;1.50;;
8480;SDS011;4277;51.354;6.740;2023-03-14T08:47:12;2.33;;;1.70;;
8480;SDS011;4277;51.354;6.740;2023-03-14T08:49:38;2.47;;;1.80;;
8480;SDS011;4277;51.354;6.740;2023-03-14T08:52:04;3.23;;;1.70;;
8480;SDS011;4277;51.354;6.740;2023-03-14T08:54:31;1.83;;;1.70;;
8480;SDS011;4277;51.354;6.740;2023-03-14T08:56:57;2.40;;;2.10;;
8480;SDS011;4277;51.354;6.740;2023-03-14T08:59:23;2.33;;;1.87;;
8480;SDS011;4277;51.354;6.740;2023-03-14T09:01:49;2.53;;;2.07;;
8480;SDS011;4277;51.354;6.740;2023-03-14T09:04:15;3.13;;;1.90;;
8480;SDS011;4277;51.354;6.740;2023-03-14T09:06:41;2.60;;;2.00;;
8480;SDS011;4277;51.354;6.740;2023-03-14T09:09:07;3.17;;;1.80;;
8480;SDS011;4277;51.354;6.740;2023-03-14T09:11:33;1.80;;;1.70;;
8480;SDS011;4277;51.354;6.740;2023-03-14T09:13:59;4.97;;;1.83;;
8480;SDS011;4277;51.354;6.740;2023-03-14T09:16:26;1.27;;;0.97;;
8480;SDS011;4277;51.354;6.740;2023-03-14T09:18:52;2.30;;;1.03;;
8480;SDS011;4277;51.354;6.740;2023-03-14T09:21:19;3.20;;;1.97;;
8480;SDS011;4277;51.354;6.740;2023-03-14T09:23:45;3.00;;;2.17;;
8480;SDS011;4277;51.354;6.740;2023-03-14T09:26:11;5.00;;;2.60;;
8480;SDS011;4277;51.354;6.740;2023-03-14T09:28:37;4.00;;;2.73;;
8480;SDS011;4277;51.354;6.740;2023-03-14T09:31:10;3.90;;;2.80;;
8480;SDS011;4277;51.354;6.740;2023-03-14T09:33:37;4.33;;;2.00;;
8480;SDS011;4277;51.354;6.740;2023-03-14T09:36:03;2.37;;;1.20;;
8480;SDS011;4277;51.354;6.740;2023-03-14T09:38:29;1.83;;;1.63;;
8480;SDS011;4277;51.354;6.740;2023-03-14T09:40:55;1.10;;;1.00;;
8480;SDS011;4277;51.354;6.740;2023-03-14T09:43:22;0.87;;;0.87;;
8480;SDS011;4277;51.354;6.740;2023-03-14T09:45:48;1.27;;;1.10;;
8480;SDS011;4277;51.354;6.740;2023-03-14T09:48:16;1.70;;;1.60;;
8480;SDS011;4277;51.354;6.740;2023-03-14T09:50:46;2.67;;;2.10;;
8480;SDS011;4277;51.354;6.740;2023-03-14T09:53:14;5.40;;;3.00;;
8480;SDS011;4277;51.354;6.740;2023-03-14T09:55:42;10.40;;;5.80;;
8480;SDS011;4277;51.354;6.740;2023-03-14T09:58:12;3.13;;;2.73;;
8480;SDS011;4277;51.354;6.740;2023-03-14T10:00:39;3.07;;;2.77;;
8480;SDS011;4277;51.354;6.740;2023-03-14T10:05:37;2.73;;;2.53;;
8480;SDS011;4277;51.354;6.740;2023-03-14T10:08:03;2.93;;;2.40;;
8480;SDS011;4277;51.354;6.740;2023-03-14T10:10:29;3.40;;;2.67;;
8480;SDS011;4277;51.354;6.740;2023-03-14T10:12:59;5.80;;;4.03;;
8480;SDS011;4277;51.354;6.740;2023-03-14T10:15:26;4.20;;;2.80;;
8480;SDS011;4277;51.354;6.740;2023-03-14T10:17:52;3.13;;;2.63;;
8480;SDS011;4277;51.354;6.740;2023-03-14T10:22:47;3.93;;;2.73;;
8480;SDS011;4277;51.354;6.740;2023-03-14T10:25:23;3.70;;;2.47;;
8480;SDS011;4277;51.354;6.740;2023-03-14T10:27:50;3.97;;;2.67;;
8480;SDS011;4277;51.354;6.740;2023-03-14T10:30:39;6.97;;;5.70;;
8480;SDS011;4277;51.354;6.740;2023-03-14T10:33:09;5.37;;;3.00;;
8480;SDS011;4277;51.354;6.740;2023-03-14T10:35:35;5.53;;;3.60;;
8480;SDS011;4277;51.354;6.740;2023-03-14T10:38:02;8.33;;;3.60;;
8480;SDS011;4277;51.354;6.740;2023-03-14T10:40:32;12.63;;;6.77;;
8480;SDS011;4277;51.354;6.740;2023-03-14T10:42:59;7.20;;;4.33;;
8480;SDS011;4277;51.354;6.740;2023-03-14T10:45:30;7.37;;;3.73;;
8480;SDS011;4277;51.354;6.740;2023-03-14T10:47:58;10.43;;;5.70;;
8480;SDS011;4277;51.354;6.740;2023-03-14T10:50:25;5.33;;;3.47;;
8480;SDS011;4277;51.354;6.740;2023-03-14T10:52:52;3.80;;;2.10;;
8480;SDS011;4277;51.354;6.740;2023-03-14T10:55:18;4.37;;;1.73;;
8480;SDS011;4277;51.354;6.740;2023-03-14T10:57:44;4.27;;;1.53;;
8480;SDS011;4277;51.354;6.740;2023-03-14T11:00:18;4.37;;;1.40;;
8480;SDS011;4277;51.354;6.740;2023-03-14T11:02:59;5.73;;;1.80;;
8480;SDS011;4277;51.354;6.740;2023-03-14T11:05:40;3.67;;;1.90;;
8480;SDS011;4277;51.354;6.740;2023-03-14T11:08:13;4.93;;;1.80;;
8480;SDS011;4277;51.354;6.740;2023-03-14T11:10:43;6.90;;;1.97;;
8480;SDS011;4277;51.354;6.740;2023-03-14T11:18:17;46.67;;;16.87;;
8480;SDS011;4277;51.354;6.740;2023-03-14T11:20:45;35.80;;;14.93;;
8480;SDS011;4277;51.354;6.740;2023-03-14T11:23:16;23.87;;;8.03;;
8480;SDS011;4277;51.354;6.740;2023-03-14T11:28:15;9.10;;;3.40;;
8480;SDS011;4277;51.354;6.740;2023-03-14T11:30:54;5.57;;;2.03;;
8480;SDS011;4277;51.354;6.740;2023-03-14T11:35:52;2.90;;;1.63;;
8480;SDS011;4277;51.354;6.740;2023-03-14T11:38:25;6.37;;;2.20;;
8480;SDS011;4277;51.354;6.740;2023-03-14T11:40:53;3.70;;;1.53;;
8480;SDS011;4277;51.354;6.740;2023-03-14T11:43:31;2.53;;;1.20;;
8480;SDS011;4277;51.354;6.740;2023-03-14T11:46:04;4.00;;;1.30;;
8480;SDS011;4277;51.354;6.740;2023-03-14T11:48:42;4.70;;;1.17;;
8480;SDS011;4277;51.354;6.740;2023-03-14T11:51:21;2.83;;;0.80;;
8480;SDS011;4277;51.354;6.740;2023-03-14T11:53:57;2.20;;;1.40;;
8480;SDS011;4277;51.354;6.740;2023-03-14T11:56:25;3.70;;;1.03;;
8480;SDS011;4277;51.354;6.740;2023-03-14T11:59:01;8.13;;;2.27;;
8480;SDS011;4277;51.354;6.740;2023-03-14T12:01:34;3.40;;;1.63;;
8480;SDS011;4277;51.354;6.740;2023-03-14T12:04:05;5.23;;;1.57;;
8480;SDS011;4277;51.354;6.740;2023-03-14T12:06:50;4.53;;;1.40;;
8480;SDS011;4277;51.354;6.740;2023-03-14T12:09:16;2.63;;;1.20;;
8480;SDS011;4277;51.354;6.740;2023-03-14T12:11:50;4.07;;;1.30;;
8480;SDS011;4277;51.354;6.740;2023-03-14T12:16:47;4.70;;;1.40;;
8480;SDS011;4277;51.354;6.740;2023-03-14T12:19:15;5.10;;;1.47;;
8480;SDS011;4277;51.354;6.740;2023-03-14T12:21:51;3.30;;;1.07;;
8480;SDS011;4277;51.354;6.740;2023-03-14T12:24:18;4.03;;;1.17;;
8480;SDS011;4277;51.354;6.740;2023-03-14T12:26:54;5.73;;;1.23;;
8480;SDS011;4277;51.354;6.740;2023-03-14T12:29:20;5.40;;;1.60;;
8480;SDS011;4277;51.354;6.740;2023-03-14T12:31:47;4.80;;;1.60;;
8480;SDS011;4277;51.354;6.740;2023-03-14T12:42:12;5.57;;;1.57;;
8480;SDS011;4277;51.354;6.740;2023-03-14T12:44:40;7.17;;;1.50;;
8480;SDS011;4277;51.354;6.740;2023-03-14T12:49:45;8.10;;;1.90;;
8480;SDS011;4277;51.354;6.740;2023-03-14T12:54:57;13.47;;;2.40;;
8480;SDS011;4277;51.354;6.740;2023-03-14T12:57:28;10.13;;;2.70;;
8480;SDS011;4277;51.354;6.740;2023-03-14T13:00:03;12.17;;;2.33;;
8480;SDS011;4277;51.354;6.740;2023-03-14T13:02:38;8.70;;;1.93;;
8480;SDS011;4277;51.354;6.740;2023-03-14T13:05:11;9.87;;;2.53;;
8480;SDS011;4277;51.354;6.740;2023-03-14T13:10:17;13.10;;;2.57;;
8480;SDS011;4277;51.354;6.740;2023-03-14T13:12:51;6.93;;;1.77;;
8480;SDS011;4277;51.354;6.740;2023-03-14T13:15:21;19.10;;;3.07;;
8480;SDS011;4277;51.354;6.740;2023-03-14T13:17:48;13.87;;;2.47;;
8480;SDS011;4277;51.354;6.740;2023-03-14T13:20:17;10.30;;;2.30;;
8480;SDS011;4277;51.354;6.740;2023-03-14T13:22:47;10.77;;;2.30;;
8480;SDS011;4277;51.354;6.740;2023-03-14T13:25:14;7.13;;;2.20;;
8480;SDS011;4277;51.354;6.740;2023-03-14T13:27:41;12.33;;;2.33;;
8480;SDS011;4277;51.354;6.740;2023-03-14T13:30:21;8.43;;;1.90;;
8480;SDS011;4277;51.354;6.740;2023-03-14T13:32:48;7.17;;;1.70;;
8480;SDS011;4277;51.354;6.740;2023-03-14T13:35:18;11.83;;;2.40;;
8480;SDS011;4277;51.354;6.740;2023-03-14T13:37:44;7.93;;;2.13;;
8480;SDS011;4277;51.354;6.740;2023-03-14T13:40:29;9.20;;;2.33;;
8480;SDS011;4277;51.354;6.740;2023-03-14T13:43:03;11.33;;;2.83;;
8480;SDS011;4277;51.354;6.740;2023-03-14T13:45:29;9.13;;;2.60;;
8480;SDS011;4277;51.354;6.740;2023-03-14T13:47:55;11.40;;;2.13;;
8480;SDS011;4277;51.354;6.740;2023-03-14T13:50:22;17.80;;;3.20;;
8480;SDS011;4277;51.354;6.740;2023-03-14T13:52:48;12.80;;;3.00;;
8480;SDS011;4277;51.354;6.740;2023-03-14T13:55:20;15.00;;;2.83;;
8480;SDS011;4277;51.354;6.740;2023-03-14T13:57:49;13.17;;;2.50;;
8480;SDS011;4277;51.354;6.740;2023-03-14T14:00:22;11.00;;;2.73;;
8480;SDS011;4277;51.354;6.740;2023-03-14T14:02:52;9.80;;;2.53;;
8480;SDS011;4277;51.354;6.740;2023-03-14T14:05:18;12.73;;;3.40;;
8480;SDS011;4277;51.354;6.740;2023-03-14T14:07:44;17.33;;;3.13;;
8480;SDS011;4277;51.354;6.740;2023-03-14T14:10:11;12.80;;;2.53;;
8480;SDS011;4277;51.354;6.740;2023-03-14T14:13:00;15.90;;;2.93;;
8480;SDS011;4277;51.354;6.740;2023-03-14T14:15:28;13.20;;;2.27;;
8480;SDS011;4277;51.354;6.740;2023-03-14T14:17:57;10.03;;;2.03;;
8480;SDS011;4277;51.354;6.740;2023-03-14T14:22:56;9.23;;;1.63;;
8480;SDS011;4277;51.354;6.740;2023-03-14T14:25:24;10.33;;;1.87;;
8480;SDS011;4277;51.354;6.740;2023-03-14T14:27:50;9.43;;;1.67;;
8480;SDS011;4277;51.354;6.740;2023-03-14T14:32:42;8.70;;;1.90;;
8480;SDS011;4277;51.354;6.740;2023-03-14T14:35:22;7.10;;;1.70;;
8480;SDS011;4277;51.354;6.740;2023-03-14T14:37:48;6.80;;;1.67;;
8480;SDS011;4277;51.354;6.740;2023-03-14T14:40:29;5.27;;;1.53;;
8480;SDS011;4277;51.354;6.740;2023-03-14T14:43:03;9.23;;;2.03;;
8480;SDS011;4277;51.354;6.740;2023-03-14T14:45:29;8.63;;;1.53;;
8480;SDS011;4277;51.354;6.740;2023-03-14T14:47:57;6.87;;;1.37;;
8480;SDS011;4277;51.354;6.740;2023-03-14T14:50:32;5.73;;;1.60;;
8480;SDS011;4277;51.354;6.740;2023-03-14T14:52:59;7.30;;;1.40;;
8480;SDS011;4277;51.354;6.740;2023-03-14T14:55:31;7.00;;;1.63;;
8480;SDS011;4277;51.354;6.740;2023-03-14T14:57:58;8.03;;;1.70;;
8480;SDS011;4277;51.354;6.740;2023-03-14T15:00:39;4.17;;;1.40;;
8480;SDS011;4277;51.354;6.740;2023-03-14T15:03:05;7.37;;;1.50;;
8480;SDS011;4277;51.354;6.740;2023-03-14T15:05:31;9.53;;;1.50;;
8480;SDS011;4277;51.354;6.740;2023-03-14T15:08:00;6.60;;;1.70;;
8480;SDS011;4277;51.354;6.740;2023-03-14T15:10:26;9.90;;;1.90;;
8480;SDS011;4277;51.354;6.740;2023-03-14T15:12:53;7.23;;;1.50;;
8480;SDS011;4277;51.354;6.740;2023-03-14T15:15:19;9.40;;;2.10;;
8480;SDS011;4277;51.354;6.740;2023-03-14T15:17:45;10.07;;;1.73;;
8480;SDS011;4277;51.354;6.740;2023-03-14T15:20:12;7.60;;;1.40;;
8480;SDS011;4277;51.354;6.740;2023-03-14T15:22:38;6.90;;;2.30;;
8480;SDS011;4277;51.354;6.740;2023-03-14T15:25:04;9.67;;;2.23;;
8480;SDS011;4277;51.354;6.740;2023-03-14T15:27:30;3.67;;;1.43;;
8480;SDS011;4277;51.354;6.740;2023-03-14T15:29:57;5.00;;;1.40;;
8480;SDS011;4277;51.354;6.740;2023-03-14T15:32:24;6.73;;;1.50;;
8480;SDS011;4277;51.354;6.740;2023-03-14T15:34:52;4.40;;;1.50;;
8480;SDS011;4277;51.354;6.740;2023-03-14T15:37:18;5.57;;;1.53;;
8480;SDS011;4277;51.354;6.740;2023-03-14T15:39:44;4.80;;;1.20;;
8480;SDS011;4277;51.354;6.740;2023-03-14T15:42:10;6.20;;;1.30;;
8480;SDS011;4277;51.354;6.740;2023-03-14T15:44:36;4.27;;;1.50;;
8480;SDS011;4277;51.354;6.740;2023-03-14T15:47:02;4.20;;;1.50;;
8480;SDS011;4277;51.354;6.740;2023-03-14T15:49:28;4.93;;;1.40;;
8480;SDS011;4277;51.354;6.740;2023-03-14T15:51:54;4.40;;;1.20;;
8480;SDS011;4277;51.354;6.740;2023-03-14T15:54:20;7.13;;;1.50;;
8480;SDS011;4277;51.354;6.740;2023-03-14T15:56:46;6.23;;;1.60;;
8480;SDS011;4277;51.354;6.740;2023-03-14T15:59:12;7.57;;;2.17;;
8480;SDS011;4277;51.354;6.740;2023-03-14T16:01:38;6.67;;;1.70;;
8480;SDS011;4277;51.354;6.740;2023-03-14T16:04:04;8.13;;;2.03;;